Aviation Digital Data Service (ADDS)

Output produced by METARs form (1037 UTC 07 December 2022)
found at http://www.aviationweather.gov/metar/data/
 
KGTR 070956Z AUTO 19006KT 10SM OVC055 20/19 A3017 RMK AO2 SLP224 T02000194
KGTR 070856Z AUTO 18006KT 10SM OVC055 20/19 A3017 RMK AO2 SLP222 T02000189 53012
KGTR 070756Z AUTO 18005KT 10SM OVC060 20/19 A3016 RMK AO2 SLP218 T02000189
KGTR 070656Z AUTO 17008KT 10SM OVC055 20/19 A3014 RMK AO2 SLP212 T02000189
KGTR 070556Z AUTO 17009KT 10SM SCT042 OVC060 21/19 A3014 RMK AO2 SLP211 T02060189 10217 20200 402440183 51007
KGTR 070456Z AUTO 16009KT 10SM SCT041 20/18 A3013 RMK AO2 SLP209 T02000183
KGTR 070356Z AUTO 17009KT 10SM OVC060 21/18 A3013 RMK AO2 SLP208 T02060183
KGTR 070256Z AUTO 16006KT 10SM FEW060 21/18 A3011 RMK AO2 SLP203 T02060178 51016
KGTR 070156Z AUTO 17005KT 10SM CLR 20/18 A3010 RMK AO2 SLP200 T02000178
KGTR 070056Z 17006KT 10SM CLR 21/18 A3008 RMK AO2 SLP192 T02060178
KGTR 062356Z 16005KT 10SM CLR 22/17 A3007 RMK AO2 SLP187 T02170172 10244 20206 53009
KGTR 062256Z 18006KT 10SM CLR 21/17 A3006 RMK AO2 SLP184 T02110172
KGTR 062156Z 17007KT 10SM BKN060 23/18 A3005 RMK AO2 SLP180 T02330183
KGTR 062056Z 19008KT 10SM SCT055 24/18 A3004 RMK AO2 SLP178 T02390183 55005
KGTR 061956Z 19010KT 10SM FEW039 BKN055 24/19 A3003 RMK AO2 SLP175 T02440189
KGTR 061856Z 19009KT 10SM SCT035 24/19 A3003 RMK AO2 SLP176 T02390189
KGTR 061756Z 20011KT 10SM SCT029 SCT035 24/19 A3006 RMK AO2 SLP183 T02390189 10239 20183 58006
KGTR 061703Z 20013KT 10SM SCT019 SCT055 23/19 A3007 RMK AO2
KGTR 061656Z 19012KT 10SM SCT019 BKN023 BKN060 23/19 A3008 RMK AO2 SLP191 T02330194
KGTR 061556Z 18007KT 10SM BKN015 OVC021 22/19 A3009 RMK AO2 SLP194 T02170194
KGTR 061540Z 17009KT 10SM BKN018 BKN055 OVC065 21/19 A3009 RMK AO2
KGTR 061456Z 17008KT 10SM OVC060 20/19 A3007 RMK AO2 SLP190 T02000189 51018
KGTR 061356Z 18008KT 10SM FEW013 SCT030 OVC050 19/18 A3006 RMK AO2 SLP185 T01940183
KGTR 061256Z 16008KT 10SM FEW017 BKN036 OVC065 19/18 A3004 RMK AO2 SLP179 T01890183
KGTR 061156Z 17009KT 10SM FEW015 BKN070 19/18 A3002 RMK AO2 SLP172 T01890183 10189 20183 53008
KGTR 061056Z AUTO 16008KT 10SM SCT017 BKN047 OVC075 19/18 A3001 RMK AO2 SLP167 T01890183
KGTR 060956Z AUTO 15006KT 10SM BKN017 OVC070 19/18 A3000 RMK AO2 SLP163 T01890183
KGTR 060856Z AUTO 16007KT 10SM OVC019 19/18 A3000 RMK AO2 SLP164 T01890183 53006
KGTR 060756Z AUTO 15009KT 10SM OVC019 18/18 A2999 RMK AO2 SLP162 T01830183
KGTR 060656Z AUTO 16008KT 10SM OVC017 18/18 A2998 RMK AO2 SLP159 T01830178
KGTR 060615Z AUTO 15007KT 10SM OVC015 18/18 A2998 RMK AO2
KGTR 060556Z AUTO 16008KT 10SM OVC013 18/18 A2998 RMK AO2 SLP159 T01830178 10183 20178 402000089 53007
KGTR 060514Z AUTO 16008KT 10SM BKN013 18/18 A2998 RMK AO2
KGTR 060456Z AUTO 16009KT 10SM CLR 18/17 A2997 RMK AO2 SLP156 T01780172
KGTR 060356Z AUTO 16007KT 10SM FEW120 18/17 A2996 RMK AO2 SLP153 T01780172
KGTR 060256Z AUTO 16006KT 10SM FEW120 18/17 A2996 RMK AO2 SLP152 T01830172 53006
KGTR 060156Z AUTO 18007KT 10SM FEW120 18/17 A2995 RMK AO2 SLP149 T01830172
KGTR 060056Z 17007KT 10SM SCT080 18/17 A2995 RMK AO2 SLP148 T01780172
KGTR 052356Z 17007KT 10SM OVC070 18/17 A2994 RMK AO2 SLP146 60000 T01830172 10200 20150 53002
KGTR 052310Z 17008KT 10SM FEW026 BKN070 18/17 A2993 RMK AO2
KGTR 052256Z 16008KT 10SM BKN026 OVC075 19/17 A2993 RMK AO2 SLP142 T01890172
KGTR 052247Z 18006KT 10SM BKN026 BKN075 OVC090 19/18 A2993 RMK AO2
KGTR 052221Z 18008KT 10SM SCT028 BKN050 OVC090 19/18 A2994 RMK AO2
KGTR 052214Z 18008KT 10SM BKN028 BKN055 OVC090 19/18 A2993 RMK AO2
KGTR 052156Z 19009KT 10SM BKN055 OVC080 19/18 A2994 RMK AO2 SLP144 T01940178
KGTR 052121Z 17009KT 10SM FEW026 BKN050 OVC060 19/18 A2994 RMK AO2
KGTR 052056Z 17007KT 10SM BKN025 OVC060 19/18 A2993 RMK AO2 SLP144 60000 T01890178 55015
KGTR 051956Z 16006KT 10SM BKN065 OVC080 17/17 A2993 RMK AO2 SLP142 T01720167
KGTR 051926Z 15010KT 10SM SCT006 OVC075 17/16 A2994 RMK AO2
KGTR 051856Z 17004KT 10SM OVC006 16/16 A2997 RMK AO2 RAE04 CIG 004V009 SLP155 P0000 T01610156
KGTR 051847Z 18006KT 10SM OVC006 16/16 A2997 RMK AO2 RAE04 CIG 004V009 P0000
KGTR 051756Z 17010KT 8SM -RA OVC004 15/15 A2998 RMK AO2 TSB20E35RAB22E35B52 SLP160 P0000 60000 T01500150 10150 20106 58020
KGTR 051741Z 20006KT 9SM OVC004 14/14 A3000 RMK AO2 TSB20E35RAB22E35 P0000
KGTR 051726Z 18006KT 9SM VCTS -RA OVC004 14/14 A2999 RMK AO2 TSB20RAB22 P0000
KGTR 051656Z 18005KT 9SM OVC004 13/13 A3001 RMK AO2 LTG DSNT W SLP171 T01330133
KGTR 051556Z 17007KT 9SM OVC004 12/12 A3005 RMK AO2 SLP183 T01220122
KGTR 051533Z 16007KT 10SM OVC004 12/12 A3004 RMK AO2
KGTR 051456Z 16007KT 10SM OVC006 12/11 A3004 RMK AO2 SLP181 T01170111 55000
KGTR 051356Z 15006KT 10SM OVC008 11/11 A3003 RMK AO2 SLP178 T01110111
KGTR 051312Z 14006KT 10SM OVC008 11/11 A3004 RMK AO2
KGTR 051256Z 13005KT 10SM OVC010 11/11 A3005 RMK AO2 SLP182 T01060106
KGTR 051156Z 12006KT 10SM OVC012 11/10 A3004 RMK AO2 SLP180 P0001 60001 70006 T01060100 10106 20089 56010
KGTR 051056Z AUTO 16005KT 10SM OVC014 10/09 A3004 RMK AO2 SLP181 T01000094
KGTR 051012Z AUTO 15004KT 10SM OVC016 10/09 A3005 RMK AO2
KGTR 050956Z AUTO 15005KT 9SM OVC014 09/09 A3005 RMK AO2 SLP185 T00940094
KGTR 050856Z AUTO 17004KT 10SM OVC020 09/09 A3007 RMK AO2 SLP191 60000 T00940089 56022
KGTR 050756Z AUTO 14003KT 10SM OVC026 09/09 A3009 RMK AO2 RAE01 SLP196 P0000 T00940089
KGTR 050656Z AUTO 07004KT 10SM -RA OVC028 09/08 A3010 RMK AO2 RAB35 SLP200 P0000 T00890083
KGTR 050635Z AUTO 02003KT 10SM -RA OVC028 09/08 A3011 RMK AO2 RAB35 P0000
KGTR 050618Z AUTO 02003KT 10SM OVC030 09/08 A3012 RMK AO2
KGTR 050556Z AUTO 35004KT 10SM OVC028 09/08 A3014 RMK AO2 RAE16 SLP213 P0000 60005 T00890083 10106 20083 401280039 56014
KGTR 050508Z AUTO 00000KT 10SM -RA OVC028 09/08 A3014 RMK AO2 P0000
KGTR 050456Z AUTO 00000KT 10SM -RA OVC030 09/08 A3014 RMK AO2 RAB0359 SLP215 P0001 T00890078
KGTR 050356Z AUTO 06003KT 10SM OVC036 09/07 A3016 RMK AO2 RAE32 SLP220 P0001 T00890072
KGTR 050256Z AUTO 01005KT 10SM -RA OVC044 09/08 A3018 RMK AO2 RAB31 SLP227 P0001 60003 T00890078 56010
KGTR 050156Z AUTO 01005KT 10SM OVC044 09/07 A3018 RMK AO2 RAE34 SLP230 P0002 T00890072
KGTR 050056Z 31004KT 10SM -RA BKN055 OVC070 10/07 A3020 RMK AO2 RAB54 SLP235 P0000 T01000067
KGTR 042356Z 32006KT 10SM OVC050 11/06 A3021 RMK AO2 SLP238 T01060061 10128 20106 53006
KGTR 042256Z 33004KT 10SM SCT070 11/07 A3018 RMK AO2 SLP230 T01060067
KGTR 042156Z 19003KT 10SM BKN110 11/07 A3017 RMK AO2 SLP224 T01110067
KGTR 042056Z 00000KT 10SM SCT120 12/06 A3019 RMK AO2 SLP230 T01170061 56030
KGTR 041956Z 35008KT 10SM CLR 12/06 A3022 RMK AO2 SLP242 T01220061
KGTR 041856Z 36003KT 10SM CLR 12/06 A3024 RMK AO2 PRESFR SLP248 T01220061
KGTR 041756Z 29004KT 10SM SCT043 11/05 A3028 RMK AO2 SLP260 T01060050 10106 20039 58018
KGTR 041656Z 29004KT 10SM OVC043 09/04 A3031 RMK AO2 SLP272 T00940044
KGTR 041556Z VRB04KT 10SM OVC043 09/04 A3032 RMK AO2 SLP275 T00890044
KGTR 041456Z 36003KT 10SM CLR 07/03 A3033 RMK AO2 SLP278 T00720033 50010
KGTR 041356Z 33005KT 10SM CLR 06/03 A3033 RMK AO2 SLP280 T00560033
KGTR 041256Z 32003KT 10SM CLR 04/03 A3032 RMK AO2 SLP277 T00390028
KGTR 041156Z 34005KT 10SM CLR 04/03 A3030 RMK AO2 SLP269 T00440028 10089 20044 55006
KGTR 041056Z AUTO 35005KT 10SM CLR 05/03 A3029 RMK AO2 SLP266 T00500033
KGTR 070520Z 0706/0806 18006KT P6SM BKN050 OVC120 
     FM071600 21008KT P6SM VCSH BKN027 
     FM071900 22008KT P6SM BKN045